createdAt,value
2023-02-19T00:21:58.213Z,8.10
2023-02-19T00:26:52.611Z,8.00
2023-02-19T00:29:21.950Z,7.90
2023-02-19T00:36:44.891Z,7.90
2023-02-19T00:39:18.079Z,7.80
2023-02-19T00:44:14.535Z,7.80
2023-02-19T00:46:47.990Z,7.80
2023-02-19T00:49:33.342Z,7.80
2023-02-19T00:59:22.739Z,7.70
2023-02-19T01:09:15.571Z,7.70
2023-02-19T01:19:06.120Z,7.60
2023-02-19T01:21:33.128Z,7.60
2023-02-19T01:24:00.146Z,7.50
2023-02-19T01:26:32.102Z,7.50
2023-02-19T01:29:02.833Z,7.50
2023-02-19T01:31:30.918Z,7.50
2023-02-19T01:34:02.859Z,7.60
2023-02-19T01:36:34.200Z,7.50
2023-02-19T01:39:05.464Z,7.50
2023-02-19T01:41:38.760Z,7.50
2023-02-19T01:44:12.121Z,7.50
2023-02-19T01:46:46.121Z,7.50
2023-02-19T01:49:26.391Z,7.50
2023-02-19T01:52:04.607Z,7.50
2023-02-19T01:54:40.084Z,7.60
2023-02-19T01:57:19.508Z,7.50
2023-02-19T01:59:54.805Z,7.50
2023-02-19T02:02:25.041Z,7.60
2023-02-19T02:04:52.970Z,7.60
2023-02-19T02:07:38.901Z,7.60
2023-02-19T02:10:22.200Z,7.60
2023-02-19T02:12:53.283Z,7.60
2023-02-19T02:15:22.169Z,7.60
2023-02-19T02:17:58.085Z,7.60
2023-02-19T02:20:45.879Z,7.60
2023-02-19T02:23:42.956Z,7.60
2023-02-19T02:26:25.988Z,7.60
2023-02-19T02:29:32.305Z,7.70
2023-02-19T02:32:11.744Z,7.70
2023-02-19T02:34:51.621Z,7.70
2023-02-19T02:37:18.940Z,7.70
2023-02-19T02:39:47.767Z,7.70
2023-02-19T02:42:30.027Z,7.70
2023-02-19T02:45:37.993Z,7.70
2023-02-19T02:48:53.669Z,7.70
2023-02-19T02:51:33.730Z,7.70
2023-02-19T02:54:42.106Z,7.70
2023-02-19T02:57:15.180Z,7.70
2023-02-19T02:59:49.038Z,7.70
2023-02-19T03:02:26.538Z,7.70
2023-02-19T03:05:34.388Z,7.70
2023-02-19T03:08:23.010Z,7.70
2023-02-19T03:11:24.402Z,7.70
2023-02-19T03:14:21.823Z,7.70
2023-02-19T03:17:10.934Z,7.70
2023-02-19T03:19:46.364Z,7.70
2023-02-19T03:22:31.643Z,7.70
2023-02-19T03:25:41.077Z,7.70
2023-02-19T03:28:12.920Z,7.70
2023-02-19T03:30:50.784Z,7.70
2023-02-19T03:33:24.980Z,7.70
2023-02-19T03:36:04.494Z,7.70
2023-02-19T03:39:08.994Z,7.70
2023-02-19T03:42:02.048Z,7.70
2023-02-19T03:45:33.939Z,7.70
2023-02-19T03:48:53.227Z,7.70
2023-02-19T03:52:07.290Z,7.70
2023-02-19T03:55:12.438Z,7.70
2023-02-19T03:58:15.266Z,7.70
2023-02-19T04:01:16.838Z,7.70
2023-02-19T04:04:03.683Z,7.70
2023-02-19T04:06:33.900Z,7.70
2023-02-19T04:09:06.543Z,7.70
2023-02-19T04:11:33.947Z,7.80
2023-02-19T04:14:20.473Z,7.80
2023-02-19T04:16:59.022Z,7.80
2023-02-19T04:19:30.869Z,7.80
2023-02-19T04:22:00.464Z,7.80
2023-02-19T04:24:38.829Z,7.80
2023-02-19T04:27:08.797Z,7.80
2023-02-19T04:29:38.235Z,7.80
2023-02-19T04:34:33.923Z,7.80
2023-02-19T04:39:28.304Z,7.80
2023-02-19T04:41:55.446Z,7.70
2023-02-19T04:44:22.488Z,7.80
2023-02-19T04:49:16.945Z,7.80
2023-02-19T04:51:43.931Z,7.80
2023-02-19T04:54:10.978Z,7.70
2023-02-19T04:56:38.050Z,7.70
2023-02-19T04:59:05.066Z,7.70
2023-02-19T05:06:27.427Z,7.70
2023-02-19T05:08:54.451Z,7.60
2023-02-19T05:11:23.629Z,7.70
2023-02-19T05:18:47.135Z,7.70
2023-02-19T05:23:43.365Z,7.70
2023-02-19T05:26:19.705Z,7.60
2023-02-19T05:28:53.187Z,7.60
2023-02-19T05:31:20.983Z,7.60
2023-02-19T05:36:21.289Z,7.60
2023-02-19T05:38:54.021Z,7.60
2023-02-19T05:41:26.320Z,7.70
2023-02-19T05:43:54.261Z,7.60
2023-02-19T05:46:26.247Z,7.60
2023-02-19T05:48:54.355Z,7.60
2023-02-19T05:51:25.001Z,7.70
2023-02-19T05:53:52.589Z,7.60
2023-02-19T05:56:40.072Z,7.60
2023-02-19T05:59:21.494Z,7.70
2023-02-19T06:01:52.596Z,7.70
2023-02-19T06:06:48.837Z,7.70
2023-02-19T06:14:14.819Z,7.70
2023-02-19T06:19:10.215Z,7.80
2023-02-19T06:24:08.657Z,7.80
2023-02-19T06:29:04.108Z,7.80
2023-02-19T06:31:31.406Z,7.70
2023-02-19T06:33:58.533Z,7.70
2023-02-19T06:48:45.471Z,7.70
2023-02-19T06:51:19.308Z,7.70
2023-02-19T06:53:46.511Z,7.70
2023-02-19T06:56:30.177Z,7.70
2023-02-19T06:59:01.998Z,7.80
2023-02-19T07:01:33.816Z,7.80
2023-02-19T07:06:30.014Z,7.70
2023-02-19T07:08:58.796Z,7.70
2023-02-19T07:11:29.649Z,7.80
2023-02-19T07:13:59.338Z,7.80
2023-02-19T07:16:27.652Z,7.80
2023-02-19T07:18:58.579Z,7.80
2023-02-19T07:21:27.399Z,7.80
2023-02-19T07:23:54.454Z,7.80
2023-02-19T07:26:23.130Z,7.80
2023-02-19T07:28:52.214Z,7.90
2023-02-19T07:31:22.468Z,7.90
2023-02-19T07:36:20.649Z,8.00
2023-02-19T07:43:50.898Z,8.00
2023-02-19T07:48:46.271Z,8.10
2023-02-19T07:51:20.545Z,8.10
2023-02-19T07:53:52.512Z,8.10
2023-02-19T07:56:20.671Z,8.10
2023-02-19T07:58:47.752Z,8.10
2023-02-19T08:01:40.218Z,8.20
2023-02-19T08:04:07.709Z,8.20
2023-02-19T08:11:49.783Z,8.30
2023-02-19T08:16:52.355Z,8.40
2023-02-19T08:19:20.339Z,8.50
2023-02-19T08:21:47.411Z,8.50
2023-02-19T08:24:14.403Z,8.50
2023-02-19T08:26:41.357Z,8.50
2023-02-19T08:29:08.400Z,8.60
2023-02-19T08:31:36.039Z,8.60
2023-02-19T08:36:30.983Z,8.70
2023-02-19T08:38:57.972Z,8.60
2023-02-19T08:43:52.639Z,8.70
2023-02-19T08:48:47.150Z,8.70
2023-02-19T08:53:42.385Z,8.70
2023-02-19T08:56:16.334Z,8.70
2023-02-19T08:58:44.333Z,8.70
2023-02-19T09:06:20.506Z,8.60
2023-02-19T09:08:47.627Z,8.50
2023-02-19T09:11:15.216Z,8.50
2023-02-19T09:13:43.860Z,8.50
2023-02-19T09:16:11.933Z,8.50
2023-02-19T09:23:36.906Z,8.80
2023-02-19T09:26:08.535Z,8.90
2023-02-19T09:28:36.476Z,8.90
2023-02-19T09:31:16.940Z,8.90
2023-02-19T09:33:47.551Z,8.90
2023-02-19T09:36:18.489Z,9.00
2023-02-19T09:38:45.815Z,9.10
2023-02-19T09:41:29.926Z,9.10
2023-02-19T09:44:00.629Z,9.10
2023-02-19T09:46:48.607Z,9.10
2023-02-19T09:49:34.892Z,9.10
2023-02-19T09:52:32.037Z,9.10
2023-02-19T09:55:14.114Z,9.00
2023-02-19T09:57:42.746Z,9.00
2023-02-19T10:00:26.722Z,9.00
2023-02-19T10:03:11.212Z,8.90
2023-02-19T10:05:40.255Z,8.90
2023-02-19T10:08:20.378Z,8.90
2023-02-19T10:10:48.061Z,8.90
2023-02-19T10:13:41.416Z,9.00
2023-02-19T10:16:18.094Z,9.10
2023-02-19T10:18:46.963Z,9.10
2023-02-19T10:21:25.750Z,9.10
2023-02-19T10:24:01.560Z,9.10
2023-02-19T10:26:28.577Z,9.20
2023-02-19T10:31:26.430Z,9.20
2023-02-19T10:33:57.784Z,9.10
2023-02-19T10:36:39.028Z,9.10
2023-02-19T10:39:42.316Z,9.00
2023-02-19T10:42:23.221Z,9.10
2023-02-19T10:45:01.746Z,9.10
2023-02-19T10:47:33.106Z,9.10
2023-02-19T10:50:04.112Z,9.00
2023-02-19T10:52:36.572Z,9.00
2023-02-19T10:55:37.451Z,9.00
2023-02-19T10:58:28.416Z,9.00
2023-02-19T11:01:26.786Z,9.00
2023-02-19T11:04:17.756Z,9.00
2023-02-19T11:06:46.719Z,8.90
2023-02-19T11:09:36.525Z,8.90
2023-02-19T11:12:05.012Z,8.80
2023-02-19T11:14:34.435Z,8.80
2023-02-19T11:17:07.601Z,8.80
2023-02-19T11:19:48.587Z,8.80
2023-02-19T11:22:30.785Z,8.70
2023-02-19T11:25:25.528Z,8.60
2023-02-19T11:28:31.576Z,8.60
2023-02-19T11:31:34.053Z,8.60
2023-02-19T11:34:29.644Z,8.80
2023-02-19T11:37:20.675Z,8.90
2023-02-19T11:39:51.205Z,9.00
2023-02-19T11:43:40.003Z,8.80
2023-02-19T11:46:33.256Z,8.90
2023-02-19T11:49:17.641Z,8.90
2023-02-19T11:52:35.014Z,8.70
2023-02-19T11:55:38.180Z,8.50
2023-02-19T11:58:42.849Z,8.30
2023-02-19T12:01:24.184Z,8.10
2023-02-19T12:04:19.290Z,8.10
2023-02-19T12:07:57.343Z,8.10
2023-02-19T12:10:56.678Z,8.00
2023-02-19T12:13:57.217Z,8.00
2023-02-19T12:16:55.177Z,8.00
2023-02-19T12:19:43.543Z,8.00
2023-02-19T12:22:33.488Z,8.10
2023-02-19T12:25:32.834Z,8.20
2023-02-19T12:28:41.260Z,8.40
2023-02-19T12:31:52.437Z,8.50
2023-02-19T12:35:07.247Z,8.40
2023-02-19T12:38:01.300Z,8.50
2023-02-19T12:40:58.980Z,8.50
2023-02-19T12:43:26.237Z,8.50
2023-02-19T12:46:19.999Z,8.50
2023-02-19T12:49:04.016Z,8.50
2023-02-19T12:51:48.957Z,8.50
2023-02-19T12:54:35.877Z,8.70
2023-02-19T12:57:23.993Z,8.80
2023-02-19T13:02:48.684Z,8.70
2023-02-19T13:05:51.171Z,8.60
2023-02-19T13:09:05.373Z,8.70
2023-02-19T13:12:24.126Z,8.80
2023-02-19T13:15:18.484Z,9.00
2023-02-19T13:17:57.307Z,9.00
2023-02-19T13:20:37.780Z,9.00
2023-02-19T13:23:32.242Z,9.10
2023-02-19T13:26:50.746Z,9.30
2023-02-19T13:30:16.787Z,9.40
2023-02-19T13:33:26.449Z,9.30
2023-02-19T13:38:48.973Z,9.20
2023-02-19T13:41:31.238Z,9.20
2023-02-19T13:44:07.992Z,9.20
2023-02-19T13:46:43.597Z,9.20
2023-02-19T13:49:29.012Z,9.20
2023-02-19T13:52:29.429Z,9.10
2023-02-19T13:55:46.503Z,9.00
2023-02-19T13:58:56.583Z,8.80
2023-02-19T14:01:58.735Z,8.40
2023-02-19T14:04:48.366Z,8.50
2023-02-19T14:09:46.222Z,8.70
2023-02-19T14:12:15.684Z,8.70
2023-02-19T14:14:56.892Z,8.60
2023-02-19T14:17:34.733Z,8.60
2023-02-19T14:20:44.961Z,8.60
2023-02-19T14:23:26.012Z,8.60
2023-02-19T14:25:59.718Z,8.60
2023-02-19T14:28:40.745Z,8.60
2023-02-19T14:31:44.738Z,8.60
2023-02-19T14:34:23.450Z,8.60
2023-02-19T14:37:01.064Z,8.50
2023-02-19T14:39:35.005Z,8.50
2023-02-19T14:42:32.343Z,8.40
2023-02-19T14:45:05.978Z,8.40
2023-02-19T14:47:35.023Z,8.30
2023-02-19T14:50:08.154Z,8.30
2023-02-19T14:52:46.673Z,8.30
2023-02-19T14:55:32.636Z,8.30
2023-02-19T14:58:12.199Z,8.20
2023-02-19T15:00:42.412Z,8.30
2023-02-19T15:03:37.012Z,8.30
2023-02-19T15:06:12.850Z,8.30
2023-02-19T15:08:47.006Z,8.30
2023-02-19T15:11:24.325Z,8.30
2023-02-19T15:13:58.233Z,8.30
2023-02-19T15:16:27.212Z,8.30
2023-02-19T15:18:58.192Z,8.20
2023-02-19T15:21:31.207Z,8.20
2023-02-19T15:24:04.339Z,8.20
2023-02-19T15:26:44.747Z,8.30
2023-02-19T15:29:16.537Z,8.30
2023-02-19T15:31:57.453Z,8.30
2023-02-19T15:34:29.687Z,8.30
2023-02-19T15:37:07.937Z,8.20
2023-02-19T15:39:45.170Z,8.10
2023-02-19T15:42:24.229Z,8.10
2023-02-19T15:45:17.658Z,8.10
2023-02-19T15:48:12.629Z,8.10
2023-02-19T15:50:51.028Z,8.20
2023-02-19T15:53:30.324Z,8.10
2023-02-19T15:56:09.756Z,8.00
2023-02-19T15:58:50.625Z,8.00
2023-02-19T16:01:29.404Z,7.90
2023-02-19T16:03:58.311Z,7.90
2023-02-19T16:06:26.961Z,7.80
2023-02-19T16:09:06.356Z,7.80
2023-02-19T16:11:48.232Z,7.80
2023-02-19T16:14:37.122Z,7.70
2023-02-19T16:17:10.083Z,7.60
2023-02-19T16:20:03.283Z,7.60
2023-02-19T16:22:40.752Z,7.60
2023-02-19T16:25:23.823Z,7.60
2023-02-19T16:30:26.733Z,7.50
2023-02-19T16:33:36.865Z,7.50
2023-02-19T16:36:41.481Z,7.50
2023-02-19T16:39:08.469Z,7.50
2023-02-19T16:41:47.422Z,7.50
2023-02-19T16:44:27.319Z,7.50
2023-02-19T16:47:23.189Z,7.50
2023-02-19T16:49:50.540Z,7.50
2023-02-19T16:52:17.647Z,7.50
2023-02-19T16:54:44.693Z,7.50
2023-02-19T16:57:11.723Z,7.50
2023-02-19T16:59:38.773Z,7.50
2023-02-19T17:02:18.062Z,7.50
2023-02-19T17:04:47.677Z,7.50
2023-02-19T17:07:18.297Z,7.50
2023-02-19T17:09:45.458Z,7.50
2023-02-19T17:12:16.623Z,7.50
2023-02-19T17:14:43.657Z,7.50
2023-02-19T17:17:11.693Z,7.50
2023-02-19T17:19:40.019Z,7.50
2023-02-19T17:22:07.817Z,7.50
2023-02-19T17:27:02.391Z,7.60
2023-02-19T17:29:33.663Z,7.60
2023-02-19T17:34:28.417Z,7.60
2023-02-19T17:36:55.538Z,7.60
2023-02-19T17:41:51.147Z,7.50
2023-02-19T17:44:18.151Z,7.60
2023-02-19T17:46:47.842Z,7.60
2023-02-19T17:49:15.165Z,7.50
2023-02-19T17:51:42.426Z,7.60
2023-02-19T17:56:37.241Z,7.60
2023-02-19T17:59:04.256Z,7.50
2023-02-19T18:01:31.309Z,7.50
2023-02-19T18:03:58.543Z,7.50
2023-02-19T18:08:54.076Z,7.40
2023-02-19T18:11:23.364Z,7.50
2023-02-19T18:13:52.372Z,7.40
2023-02-19T18:16:19.965Z,7.40
2023-02-19T18:18:46.989Z,7.40
2023-02-19T18:23:42.490Z,7.50
2023-02-19T18:26:11.488Z,7.50
2023-02-19T18:28:40.177Z,7.50
2023-02-19T18:38:30.797Z,7.50
2023-02-19T18:40:58.932Z,7.50
2023-02-19T18:43:26.613Z,7.50
2023-02-19T18:53:16.391Z,7.50
2023-02-19T18:55:45.763Z,7.50
2023-02-19T18:58:13.487Z,7.50
2023-02-19T19:03:08.515Z,7.50
2023-02-19T19:05:35.553Z,7.50
2023-02-19T19:10:30.878Z,7.50
2023-02-19T19:13:00.115Z,7.50
2023-02-19T19:15:27.807Z,4.80
2023-02-19T19:17:54.913Z,7.50
2023-02-19T19:20:23.502Z,7.50
2023-02-19T19:22:52.986Z,7.40
2023-02-19T19:25:22.826Z,7.40
2023-02-19T19:30:21.685Z,7.40
2023-02-19T19:32:53.961Z,7.30
2023-02-19T19:35:22.888Z,7.30
2023-02-19T19:37:50.309Z,7.30
2023-02-19T19:40:18.739Z,7.30
2023-02-19T19:42:47.707Z,7.30
2023-02-19T19:45:15.752Z,7.30
2023-02-19T19:47:43.304Z,7.30
2023-02-19T19:52:40.396Z,7.30
2023-02-19T19:55:10.251Z,7.20
2023-02-19T19:57:40.332Z,7.20
2023-02-19T20:00:10.456Z,7.20
2023-02-19T20:02:40.676Z,7.20
2023-02-19T20:05:08.031Z,7.20
2023-02-19T20:12:30.186Z,7.20
2023-02-19T20:17:28.744Z,7.20
2023-02-19T20:24:53.244Z,7.10
2023-02-19T20:27:22.240Z,7.00
2023-02-19T20:29:51.438Z,7.00
2023-02-19T20:32:18.701Z,6.90
2023-02-19T20:34:50.350Z,6.90
2023-02-19T20:37:17.609Z,6.80
2023-02-19T20:39:44.813Z,6.70
2023-02-19T20:42:16.475Z,6.70
2023-02-19T20:44:44.140Z,6.70
2023-02-19T20:52:07.739Z,6.60
2023-02-19T20:54:36.274Z,6.60
2023-02-19T20:57:05.902Z,6.60
2023-02-19T20:59:38.652Z,6.50
2023-02-19T21:02:15.665Z,6.50
2023-02-19T21:04:43.875Z,6.50
2023-02-19T21:07:10.908Z,6.40
2023-02-19T21:09:37.953Z,6.40
2023-02-19T21:14:33.031Z,6.30
2023-02-19T21:19:27.970Z,6.30
2023-02-19T21:21:55.059Z,6.30
2023-02-19T21:24:22.165Z,6.30
2023-02-19T21:26:49.460Z,6.30
2023-02-19T21:29:21.357Z,6.30
2023-02-19T21:31:54.524Z,6.30
2023-02-19T21:34:29.030Z,6.30
2023-02-19T21:36:56.702Z,6.20
2023-02-19T21:39:28.093Z,6.30
2023-02-19T21:44:25.710Z,6.20
2023-02-19T21:46:52.903Z,6.20
2023-02-19T21:49:20.023Z,6.20
2023-02-19T21:51:48.541Z,6.20
2023-02-19T21:54:21.573Z,6.20
2023-02-19T21:56:48.849Z,6.20
2023-02-19T21:59:16.247Z,6.20
2023-02-19T22:01:44.355Z,6.10
2023-02-19T22:04:18.217Z,6.10
2023-02-19T22:09:14.973Z,6.10
2023-02-19T22:11:43.197Z,6.20
2023-02-19T22:14:10.152Z,6.20
2023-02-19T22:16:37.508Z,6.20
2023-02-19T22:19:04.883Z,6.20
2023-02-19T22:24:02.410Z,6.20
2023-02-19T22:26:34.118Z,6.20
2023-02-19T22:29:06.733Z,6.20
2023-02-19T22:36:32.013Z,6.20
2023-02-19T22:39:00.959Z,6.20
2023-02-19T22:43:58.290Z,6.20
2023-02-19T22:46:30.049Z,6.30
2023-02-19T22:51:26.699Z,6.30
2023-02-19T22:53:57.411Z,6.30
2023-02-19T22:56:27.814Z,6.30
2023-02-19T22:58:57.220Z,6.30
2023-02-19T23:01:26.053Z,6.40
2023-02-19T23:03:59.178Z,6.40
2023-02-19T23:06:33.801Z,6.40
2023-02-19T23:09:16.337Z,6.40
2023-02-19T23:11:43.799Z,6.40
2023-02-19T23:14:11.428Z,6.40
2023-02-19T23:19:11.433Z,6.30
2023-02-19T23:21:41.771Z,6.30
2023-02-19T23:24:09.507Z,6.30
2023-02-19T23:26:44.551Z,6.30
2023-02-19T23:29:19.141Z,6.30
2023-02-19T23:36:50.610Z,6.30
2023-02-19T23:39:22.074Z,6.30
2023-02-19T23:41:56.398Z,6.30
2023-02-19T23:44:25.994Z,6.30
2023-02-19T23:46:53.203Z,6.30
2023-02-19T23:51:48.207Z,6.30
2023-02-19T23:59:10.129Z,6.30
